createdAt,value
2019-04-21T00:00:15.087Z,0.00
2019-04-21T00:01:12.742Z,0.00
2019-04-21T00:02:14.821Z,0.00
2019-04-21T00:03:18.154Z,0.00
2019-04-21T00:04:27.306Z,0.00
2019-04-21T00:05:43.166Z,0.00
2019-04-21T00:06:32.445Z,0.00
2019-04-21T00:09:32.657Z,0.00
2019-04-21T00:10:33.521Z,0.00
2019-04-21T00:11:36.488Z,0.00
2019-04-21T00:12:28.331Z,0.00
2019-04-21T00:13:28.235Z,0.00
2019-04-21T00:14:23.722Z,0.00
2019-04-21T00:15:21.726Z,0.00
2019-04-21T00:16:14.104Z,0.00
2019-04-21T00:17:17.315Z,0.00
2019-04-21T00:18:13.598Z,0.00
2019-04-21T00:19:17.834Z,0.00
2019-04-21T00:20:21.331Z,0.00
2019-04-21T00:21:25.546Z,0.00
2019-04-21T00:22:23.754Z,0.00
2019-04-21T00:23:27.460Z,0.00
2019-04-21T00:24:25.213Z,0.00
2019-04-21T00:25:23.568Z,0.00
2019-04-21T00:26:27.857Z,0.00
2019-04-21T00:27:30.996Z,0.00
2019-04-21T00:28:39.099Z,0.00
2019-04-21T00:29:36.595Z,0.00
2019-04-21T00:30:35.472Z,0.00
2019-04-21T00:31:28.550Z,0.00
2019-04-21T00:32:25.651Z,0.00
2019-04-21T00:33:17.561Z,0.00
2019-04-21T00:34:13.222Z,0.00
2019-04-21T00:35:18.469Z,0.00
2019-04-21T00:36:18.583Z,0.00
2019-04-21T00:37:20.991Z,0.00
2019-04-21T00:38:34.271Z,0.00
2019-04-21T00:39:43.354Z,0.00
2019-04-21T00:40:39.257Z,0.00
2019-04-21T00:41:29.687Z,0.00
2019-04-21T00:42:29.840Z,0.00
2019-04-21T00:43:30.954Z,0.00
2019-04-21T00:44:25.663Z,0.00
2019-04-21T00:45:28.620Z,0.00
2019-04-21T00:46:31.198Z,0.00
2019-04-21T00:47:34.536Z,0.00
2019-04-21T00:48:36.543Z,0.00
2019-04-21T00:49:26.930Z,0.00
2019-04-21T00:50:40.500Z,0.00
2019-04-21T00:51:43.897Z,0.00
2019-04-21T00:52:46.243Z,0.00
2019-04-21T00:53:43.508Z,0.00
2019-04-21T00:54:44.335Z,0.00
2019-04-21T00:55:38.901Z,0.00
2019-04-21T00:56:34.446Z,0.00
2019-04-21T00:57:38.788Z,0.00
2019-04-21T00:58:33.268Z,0.00
2019-04-21T00:59:37.057Z,0.00
2019-04-21T01:00:32.432Z,0.00
2019-04-21T01:01:31.287Z,0.00
2019-04-21T01:02:41.404Z,0.00
2019-04-21T01:04:37.087Z,0.00
2019-04-21T01:05:37.552Z,0.00
2019-04-21T01:06:38.137Z,0.00
2019-04-21T01:07:36.029Z,0.00
2019-04-21T01:08:33.336Z,0.00
2019-04-21T01:09:29.059Z,0.00
2019-04-21T01:10:25.901Z,0.00
2019-04-21T01:11:33.018Z,0.00
2019-04-21T01:12:38.578Z,0.00
2019-04-21T01:13:52.090Z,0.00
2019-04-21T01:14:40.945Z,0.00
2019-04-21T01:15:37.279Z,0.00
2019-04-21T01:16:40.929Z,0.00
2019-04-21T01:17:38.558Z,0.00
2019-04-21T01:18:32.857Z,0.00
2019-04-21T01:19:33.663Z,0.00
2019-04-21T01:20:17.413Z,0.00
2019-04-21T01:21:14.260Z,0.00
2019-04-21T01:22:13.372Z,0.00
2019-04-21T01:23:14.628Z,0.00
2019-04-21T01:24:19.793Z,0.00
2019-04-21T01:25:22.877Z,0.00
2019-04-21T01:26:24.910Z,0.00
2019-04-21T01:27:27.504Z,0.00
2019-04-21T01:28:29.045Z,0.00
2019-04-21T01:29:39.140Z,0.00
2019-04-21T01:30:34.525Z,0.00
2019-04-21T01:31:28.261Z,0.00
2019-04-21T01:32:34.437Z,0.00
2019-04-21T01:33:38.503Z,0.00
2019-04-21T01:34:33.036Z,0.00
2019-04-21T01:35:32.984Z,0.00
2019-04-21T01:36:31.517Z,0.00
2019-04-21T01:37:39.950Z,0.00
2019-04-21T01:38:39.866Z,0.00
2019-04-21T01:39:44.810Z,0.00
2019-04-21T01:40:37.650Z,0.00
2019-04-21T01:41:39.704Z,0.00
2019-04-21T01:42:31.533Z,0.00
2019-04-21T01:43:38.407Z,0.00
2019-04-21T01:44:43.034Z,0.00
2019-04-21T01:45:34.164Z,0.00
2019-04-21T01:46:30.921Z,0.00
2019-04-21T01:47:31.393Z,0.00
2019-04-21T01:48:31.872Z,0.00
2019-04-21T01:49:28.463Z,0.00
2019-04-21T01:50:28.963Z,0.00
2019-04-21T01:51:28.377Z,0.00
2019-04-21T01:53:38.186Z,0.00
2019-04-21T01:54:35.134Z,0.00
2019-04-21T01:55:36.723Z,0.00
2019-04-21T01:56:34.029Z,0.00
2019-04-21T01:57:33.317Z,0.00
2019-04-21T01:58:25.702Z,0.00
2019-04-21T01:59:30.480Z,0.00
2019-04-21T02:00:32.791Z,0.00
2019-04-21T02:01:33.306Z,0.00
2019-04-21T02:02:36.359Z,0.00
2019-04-21T02:04:14.060Z,0.00
2019-04-21T02:04:41.820Z,0.00
2019-04-21T02:05:39.217Z,0.00
2019-04-21T02:06:37.795Z,0.00
2019-04-21T02:07:34.255Z,0.00
2019-04-21T02:08:31.348Z,0.00
2019-04-21T02:09:35.724Z,0.00
2019-04-21T02:10:40.306Z,0.00
2019-04-21T02:11:37.907Z,0.00
2019-04-21T02:12:40.071Z,0.00
2019-04-21T02:13:44.312Z,0.00
2019-04-21T02:14:41.476Z,0.00
2019-04-21T02:15:54.469Z,0.00
2019-04-21T02:16:39.199Z,0.00
2019-04-21T02:17:34.294Z,0.00
2019-04-21T02:18:33.333Z,0.00
2019-04-21T02:19:31.506Z,0.00
2019-04-21T02:20:26.836Z,0.00
2019-04-21T02:21:28.635Z,0.00
2019-04-21T02:22:46.340Z,0.00
2019-04-21T02:23:41.183Z,0.00
2019-04-21T02:24:42.644Z,0.00
2019-04-21T02:25:41.026Z,0.00
2019-04-21T02:26:47.446Z,0.00
2019-04-21T02:27:36.606Z,0.00
2019-04-21T02:28:42.839Z,0.00
2019-04-21T02:29:43.811Z,0.00
2019-04-21T02:30:59.938Z,0.00
2019-04-21T02:31:45.345Z,0.00
2019-04-21T02:32:48.315Z,0.00
2019-04-21T02:34:00.375Z,0.00
2019-04-21T02:35:52.634Z,0.00
2019-04-21T02:37:00.546Z,0.00
2019-04-21T02:37:53.541Z,0.00
2019-04-21T02:39:08.444Z,0.00
2019-04-21T02:39:48.992Z,0.00
2019-04-21T02:40:46.682Z,0.00
2019-04-21T02:41:47.402Z,0.00
2019-04-21T02:44:59.847Z,0.00
2019-04-21T02:45:50.696Z,0.00
2019-04-21T02:46:42.058Z,0.00
2019-04-21T02:48:04.477Z,0.00
2019-04-21T02:49:57.361Z,0.00
2019-04-21T02:52:01.684Z,0.00
2019-04-21T02:55:43.690Z,0.00
2019-04-21T02:56:56.987Z,5.63
2019-04-21T02:57:49.403Z,5.63
2019-04-21T02:58:51.225Z,5.63
2019-04-21T02:59:50.144Z,5.63
2019-04-21T03:00:48.583Z,5.63
2019-04-21T03:02:47.637Z,5.63
2019-04-21T03:03:50.592Z,11.25
2019-04-21T03:05:02.313Z,11.25
2019-04-21T03:06:51.749Z,11.25
2019-04-21T03:08:00.620Z,11.25
2019-04-21T03:08:50.093Z,11.25
2019-04-21T03:09:45.029Z,16.88
2019-04-21T03:11:49.045Z,16.88
2019-04-21T03:12:50.969Z,16.88
2019-04-21T03:13:46.988Z,22.50
2019-04-21T03:14:56.114Z,22.50
2019-04-21T03:15:53.460Z,22.50
2019-04-21T03:16:52.738Z,28.13
2019-04-21T03:17:51.385Z,28.13
2019-04-21T03:19:55.496Z,33.75
2019-04-21T03:20:56.726Z,39.38
2019-04-21T03:21:48.358Z,39.38
2019-04-21T03:23:07.809Z,45.00
2019-04-21T03:25:50.132Z,50.63
2019-04-21T03:28:52.180Z,56.25
2019-04-21T03:36:24.603Z,67.50
2019-04-21T03:37:47.769Z,73.13
2019-04-21T03:38:40.723Z,84.38
2019-04-21T03:39:54.930Z,90.00
2019-04-21T03:40:52.596Z,95.63
2019-04-21T03:42:07.358Z,95.63
2019-04-21T03:42:47.795Z,95.63
2019-04-21T03:44:45.642Z,101.25
2019-04-21T03:45:46.328Z,106.88
2019-04-21T03:46:47.990Z,112.50
2019-04-21T03:47:50.135Z,123.75
2019-04-21T03:52:58.883Z,168.75
2019-04-21T03:53:46.184Z,163.13
2019-04-21T03:55:03.332Z,185.63
2019-04-21T03:58:54.294Z,185.63
2019-04-21T03:59:54.984Z,174.38
2019-04-21T04:01:02.850Z,168.75
2019-04-21T04:01:48.611Z,163.13
2019-04-21T04:03:00.021Z,191.25
2019-04-21T04:06:03.383Z,208.13
2019-04-21T04:06:55.565Z,213.75
2019-04-21T04:07:59.234Z,219.38
2019-04-21T04:09:11.086Z,225.00
2019-04-21T04:10:52.009Z,253.13
2019-04-21T04:12:54.784Z,270.00
2019-04-21T04:15:59.825Z,298.13
2019-04-21T04:17:46.747Z,298.13
2019-04-21T04:18:53.240Z,286.88
2019-04-21T04:19:45.437Z,286.88
2019-04-21T04:20:51.856Z,320.63
2019-04-21T04:22:01.264Z,348.75
2019-04-21T04:23:53.457Z,393.75
2019-04-21T04:25:04.612Z,365.63
2019-04-21T04:25:53.657Z,354.38
2019-04-21T04:27:07.862Z,393.75
2019-04-21T04:28:02.191Z,410.63
2019-04-21T04:29:50.321Z,371.25
2019-04-21T04:31:00.710Z,393.75
2019-04-21T04:31:45.597Z,421.88
2019-04-21T04:33:59.924Z,348.75
2019-04-21T04:39:02.622Z,382.50
2019-04-21T04:39:48.801Z,309.38
2019-04-21T04:40:55.570Z,281.25
2019-04-21T04:42:12.540Z,241.88
2019-04-21T04:43:54.899Z,236.25
2019-04-21T04:45:56.499Z,511.88
2019-04-21T04:47:01.819Z,517.50
2019-04-21T04:47:51.279Z,545.63
2019-04-21T04:48:54.985Z,601.88
2019-04-21T04:51:16.290Z,511.88
2019-04-21T04:52:10.238Z,483.75
2019-04-21T04:52:45.685Z,444.38
2019-04-21T04:53:47.469Z,523.13
2019-04-21T04:54:55.023Z,624.38
2019-04-21T04:55:48.995Z,691.88
2019-04-21T04:56:56.409Z,720.00
2019-04-21T04:59:18.460Z,697.50
2019-04-21T04:59:49.870Z,590.63
2019-04-21T05:00:54.534Z,376.88
2019-04-21T05:02:52.283Z,483.75
2019-04-21T05:04:02.579Z,495.00
2019-04-21T05:04:56.750Z,759.38
2019-04-21T05:05:57.568Z,770.63
2019-04-21T05:08:07.619Z,781.88
2019-04-21T05:10:56.911Z,849.38
2019-04-21T05:12:51.105Z,871.88
2019-04-21T05:13:57.615Z,911.25
2019-04-21T05:14:57.063Z,883.13
2019-04-21T05:15:53.695Z,866.25
2019-04-21T05:19:10.266Z,810.00
2019-04-21T05:20:01.797Z,866.25
2019-04-21T05:20:52.278Z,900.00
2019-04-21T05:22:05.812Z,939.38
2019-04-21T05:22:42.299Z,939.38
2019-04-21T05:23:43.000Z,939.38
2019-04-21T05:24:41.920Z,933.75
2019-04-21T05:25:37.874Z,922.50
2019-04-21T05:26:39.040Z,911.25
2019-04-21T05:27:33.413Z,922.50
2019-04-21T05:28:35.540Z,933.75
2019-04-21T05:29:49.803Z,933.75
2019-04-21T05:30:50.847Z,956.25
2019-04-21T05:31:47.710Z,984.38
2019-04-21T05:32:45.151Z,961.88
2019-04-21T05:33:49.221Z,956.25
2019-04-21T05:34:35.652Z,956.25
2019-04-21T05:35:40.543Z,967.50
2019-04-21T05:36:45.976Z,1012.50
2019-04-21T05:37:43.716Z,1001.25
2019-04-21T05:38:37.947Z,978.75
2019-04-21T05:39:37.802Z,1018.13
2019-04-21T05:40:35.915Z,1001.25
2019-04-21T05:41:33.820Z,990.00
2019-04-21T05:42:35.391Z,1012.50
2019-04-21T05:43:39.059Z,1018.13
2019-04-21T05:44:52.749Z,1023.75
2019-04-21T05:45:40.546Z,1046.25
2019-04-21T05:46:53.486Z,1051.88
2019-04-21T05:47:48.658Z,1080.00
2019-04-21T05:48:45.705Z,1091.25
2019-04-21T05:49:38.701Z,1080.00
2019-04-21T05:50:40.318Z,1091.25
2019-04-21T05:51:39.776Z,1091.25
2019-04-21T05:52:38.192Z,1113.75
2019-04-21T05:53:45.589Z,1147.50
2019-04-21T05:54:52.982Z,1125.00
2019-04-21T05:56:40.656Z,1096.88
2019-04-21T05:57:46.309Z,1119.38
2019-04-21T05:58:43.595Z,1158.75
2019-04-21T05:59:43.570Z,1186.88
2019-04-21T06:00:59.259Z,1186.88
2019-04-21T06:01:46.741Z,1158.75
2019-04-21T06:02:56.517Z,1170.00
2019-04-21T06:03:53.167Z,1175.63
2019-04-21T06:05:55.630Z,1147.50
2019-04-21T06:06:48.092Z,1153.13
2019-04-21T06:07:41.009Z,1209.38
2019-04-21T06:08:44.966Z,1209.38
2019-04-21T06:09:52.369Z,1170.00
2019-04-21T06:10:48.827Z,1186.88
2019-04-21T06:11:45.970Z,1170.00
2019-04-21T06:12:52.073Z,1181.25
2019-04-21T06:13:48.619Z,1231.88
2019-04-21T06:14:52.097Z,1299.38
2019-04-21T06:15:54.781Z,1293.75
2019-04-21T06:16:49.850Z,1231.88
2019-04-21T06:17:49.158Z,1203.75
2019-04-21T06:18:50.586Z,1248.75
2019-04-21T06:19:49.524Z,1293.75
2019-04-21T06:20:47.737Z,1276.88
2019-04-21T06:21:45.232Z,1282.50
2019-04-21T06:22:46.533Z,1271.25
2019-04-21T06:23:45.618Z,1243.13
2019-04-21T06:25:08.944Z,1305.00
2019-04-21T06:25:57.514Z,1361.25
2019-04-21T06:27:11.609Z,1327.50
2019-04-21T06:27:45.826Z,1344.38
2019-04-21T06:28:45.321Z,1355.63
2019-04-21T06:29:50.105Z,1366.88
2019-04-21T06:30:57.998Z,1423.13
2019-04-21T06:33:50.708Z,1350.00
2019-04-21T06:35:06.259Z,1333.13
2019-04-21T06:35:59.416Z,1316.25
2019-04-21T06:36:54.717Z,1288.13
2019-04-21T06:37:49.422Z,1305.00
2019-04-21T06:38:54.288Z,1378.13
2019-04-21T06:40:01.730Z,1378.13
2019-04-21T06:40:50.186Z,1383.75
2019-04-21T06:41:49.077Z,1434.38
2019-04-21T06:42:50.262Z,1440.00
2019-04-21T06:44:54.660Z,1411.88
2019-04-21T06:46:00.458Z,1417.50
2019-04-21T06:46:47.054Z,1417.50
2019-04-21T06:47:53.978Z,1440.00
2019-04-21T06:48:49.699Z,1445.63
2019-04-21T06:49:43.276Z,1479.38
2019-04-21T06:50:55.005Z,1507.50
2019-04-21T06:51:42.958Z,1518.75
2019-04-21T06:53:52.230Z,1389.38
2019-04-21T06:54:50.735Z,1440.00
2019-04-21T06:55:44.142Z,1428.75
2019-04-21T06:56:47.905Z,1468.13
2019-04-21T06:57:45.229Z,1423.13
2019-04-21T06:58:47.994Z,1400.63
2019-04-21T06:59:43.515Z,1423.13
2019-04-21T07:00:42.441Z,1490.63
2019-04-21T07:01:55.234Z,1496.25
2019-04-21T07:02:51.928Z,1479.38
2019-04-21T07:03:48.674Z,1490.63
2019-04-21T07:04:51.476Z,1569.38
2019-04-21T07:05:51.895Z,1620.00
2019-04-21T07:06:48.236Z,1580.63
2019-04-21T07:07:56.001Z,1597.50
2019-04-21T07:08:52.924Z,1552.50
2019-04-21T07:09:52.841Z,1490.63
2019-04-21T07:10:43.511Z,1575.00
2019-04-21T07:11:45.593Z,1591.88
2019-04-21T07:12:44.904Z,1530.00
2019-04-21T07:13:50.990Z,1620.00
2019-04-21T07:14:47.914Z,1591.88
2019-04-21T07:15:53.806Z,1541.25
2019-04-21T07:16:51.054Z,1608.75
2019-04-21T07:17:45.414Z,1620.00
2019-04-21T07:18:53.709Z,1530.00
2019-04-21T07:19:49.943Z,1541.25
2019-04-21T07:20:50.451Z,1597.50
2019-04-21T07:21:46.871Z,1620.00
2019-04-21T07:22:51.212Z,1524.38
2019-04-21T07:23:53.758Z,1541.25
2019-04-21T07:24:49.240Z,1670.63
2019-04-21T07:25:45.615Z,1614.38
2019-04-21T07:26:51.352Z,1513.13
2019-04-21T07:27:49.028Z,1575.00
2019-04-21T07:29:00.116Z,1676.25
2019-04-21T07:30:57.575Z,1563.75
2019-04-21T07:31:55.649Z,1591.88
2019-04-21T07:32:51.543Z,1642.50
2019-04-21T07:35:06.595Z,1766.25
2019-04-21T07:35:45.711Z,1839.38
2019-04-21T07:36:56.170Z,1811.25
2019-04-21T07:37:48.134Z,1726.88
2019-04-21T07:38:46.936Z,1732.50
2019-04-21T07:39:46.905Z,1681.88
2019-04-21T07:40:42.698Z,1665.00
2019-04-21T07:41:46.879Z,1715.63
2019-04-21T07:42:46.948Z,1777.50
2019-04-21T07:43:44.013Z,1738.13
2019-04-21T07:44:44.225Z,1698.75
2019-04-21T07:45:40.758Z,1816.88
2019-04-21T07:46:41.594Z,1721.25
2019-04-21T07:47:46.417Z,1721.25
2019-04-21T07:48:49.759Z,1760.63
2019-04-21T07:49:56.782Z,1771.88
2019-04-21T07:50:46.642Z,1535.63
2019-04-21T07:51:50.927Z,1546.88
2019-04-21T07:52:49.012Z,1890.00
2019-04-21T07:53:52.162Z,2008.13
2019-04-21T07:55:01.658Z,1873.13
2019-04-21T07:56:34.928Z,2092.50
2019-04-21T07:57:45.728Z,1918.13
2019-04-21T07:58:53.418Z,1794.38
2019-04-21T08:00:02.734Z,1974.38
2019-04-21T08:00:52.985Z,1963.13
2019-04-21T08:01:52.002Z,1771.88
2019-04-21T08:02:51.146Z,1861.88
2019-04-21T08:03:45.809Z,1963.13
2019-04-21T08:05:07.520Z,1935.00
2019-04-21T08:05:53.655Z,1929.38
2019-04-21T08:06:46.084Z,1974.38
2019-04-21T08:07:51.900Z,1996.88
2019-04-21T08:08:46.650Z,2002.50
2019-04-21T08:09:46.751Z,2019.38
2019-04-21T08:10:47.142Z,2070.00
2019-04-21T08:11:46.274Z,1906.88
2019-04-21T08:12:44.750Z,1906.88
2019-04-21T08:13:48.804Z,1845.00
2019-04-21T08:14:55.610Z,1850.63
2019-04-21T08:16:07.734Z,1935.00
2019-04-21T08:16:53.882Z,1985.63
2019-04-21T08:17:47.229Z,1940.63
2019-04-21T08:18:50.213Z,1839.38
2019-04-21T08:19:42.801Z,1749.38
2019-04-21T08:20:47.919Z,1878.75
2019-04-21T08:21:54.619Z,2025.00
2019-04-21T08:22:51.069Z,1991.25
2019-04-21T08:23:48.362Z,1929.38
2019-04-21T08:24:49.154Z,1951.88
2019-04-21T08:26:53.454Z,1867.50
2019-04-21T08:28:52.401Z,1884.38
2019-04-21T08:29:51.836Z,1946.25
2019-04-21T08:30:47.731Z,2120.63
2019-04-21T08:32:00.661Z,2120.63
2019-04-21T08:33:08.738Z,2002.50
2019-04-21T08:33:56.466Z,1895.63
2019-04-21T08:34:55.878Z,1980.00
2019-04-21T08:36:51.101Z,2148.75
2019-04-21T08:37:51.775Z,2064.38
2019-04-21T08:38:48.460Z,2008.13
2019-04-21T08:39:56.769Z,1951.88
2019-04-21T08:40:51.769Z,1895.63
2019-04-21T08:41:51.093Z,1996.88
2019-04-21T08:42:52.139Z,2081.25
2019-04-21T08:44:03.811Z,2041.88
2019-04-21T08:46:01.921Z,2098.13
2019-04-21T08:46:56.805Z,1974.38
2019-04-21T08:47:55.230Z,2053.13
2019-04-21T08:48:52.755Z,2008.13
2019-04-21T08:49:47.521Z,2064.38
2019-04-21T08:50:55.045Z,2013.75
2019-04-21T08:51:53.899Z,1906.88
2019-04-21T08:53:57.423Z,2171.25
2019-04-21T08:54:51.671Z,2221.88
2019-04-21T08:56:00.997Z,2058.75
2019-04-21T08:56:49.702Z,1940.63
2019-04-21T08:58:02.418Z,1940.63
2019-04-21T08:58:50.892Z,1850.63
2019-04-21T08:59:56.571Z,1895.63
2019-04-21T09:00:55.116Z,1918.13
2019-04-21T09:01:50.773Z,1440.00
2019-04-21T09:02:46.558Z,1316.25
2019-04-21T09:03:49.534Z,1704.38
2019-04-21T09:04:50.376Z,1816.88
2019-04-21T09:05:49.402Z,1434.38
2019-04-21T09:06:58.836Z,1366.88
2019-04-21T09:07:50.954Z,1293.75
2019-04-21T09:08:53.310Z,1130.63
2019-04-21T09:09:47.683Z,1164.38
2019-04-21T09:10:47.238Z,1186.88
2019-04-21T09:11:50.983Z,1186.88
2019-04-21T09:12:49.148Z,1181.25
2019-04-21T09:13:50.660Z,1158.75
2019-04-21T09:14:50.260Z,1119.38
2019-04-21T09:15:49.543Z,1096.88
2019-04-21T09:16:47.246Z,1096.88
2019-04-21T09:17:42.448Z,1006.88
2019-04-21T09:18:41.965Z,1046.25
2019-04-21T09:20:01.812Z,1119.38
2019-04-21T09:20:55.281Z,1018.13
2019-04-21T09:21:50.231Z,950.63
2019-04-21T09:22:50.569Z,956.25
2019-04-21T09:23:53.955Z,928.13
2019-04-21T09:24:51.614Z,905.63
2019-04-21T09:25:52.360Z,894.38
2019-04-21T09:26:49.704Z,922.50
2019-04-21T09:27:46.760Z,900.00
2019-04-21T09:28:45.130Z,838.13
2019-04-21T09:29:40.574Z,798.75
2019-04-21T09:30:39.532Z,787.50
2019-04-21T09:31:36.595Z,793.13
2019-04-21T09:32:34.491Z,793.13
2019-04-21T09:33:37.685Z,793.13
2019-04-21T09:34:37.017Z,781.88
2019-04-21T09:35:31.552Z,787.50
2019-04-21T09:36:38.967Z,770.63
2019-04-21T09:37:40.909Z,748.13
2019-04-21T09:38:37.117Z,759.38
2019-04-21T09:39:33.229Z,765.00
2019-04-21T09:40:37.293Z,742.50
2019-04-21T09:41:34.821Z,742.50
2019-04-21T09:42:38.648Z,759.38
2019-04-21T09:43:41.262Z,753.75
2019-04-21T09:44:37.205Z,736.88
2019-04-21T09:45:32.863Z,736.88
2019-04-21T09:46:35.475Z,731.25
2019-04-21T09:47:41.805Z,742.50
2019-04-21T09:48:44.282Z,742.50
2019-04-21T09:49:33.953Z,742.50
2019-04-21T09:50:34.416Z,725.63
2019-04-21T09:51:32.610Z,731.25
2019-04-21T09:52:40.899Z,725.63
2019-04-21T09:53:37.639Z,748.13
2019-04-21T09:54:37.056Z,748.13
2019-04-21T09:55:45.261Z,731.25
2019-04-21T09:56:43.629Z,731.25
2019-04-21T09:57:41.284Z,742.50
2019-04-21T09:58:39.829Z,742.50
2019-04-21T09:59:37.337Z,742.50
2019-04-21T10:00:44.795Z,748.13
2019-04-21T10:01:50.328Z,742.50
2019-04-21T10:02:40.029Z,731.25
2019-04-21T10:03:38.237Z,742.50
2019-04-21T10:04:33.582Z,770.63
2019-04-21T10:05:33.744Z,753.75
2019-04-21T10:06:33.004Z,742.50
2019-04-21T10:07:37.093Z,759.38
2019-04-21T10:08:34.054Z,759.38
2019-04-21T10:09:33.349Z,742.50
2019-04-21T10:10:34.123Z,770.63
2019-04-21T10:11:33.256Z,765.00
2019-04-21T10:12:33.119Z,770.63
2019-04-21T10:13:33.891Z,776.25
2019-04-21T10:14:33.074Z,787.50
2019-04-21T10:15:33.263Z,793.13
2019-04-21T10:16:34.191Z,776.25
2019-04-21T10:17:33.107Z,798.75
2019-04-21T10:18:33.773Z,804.38
2019-04-21T10:19:33.921Z,815.63
2019-04-21T10:20:33.170Z,810.00
2019-04-21T10:21:33.911Z,810.00
2019-04-21T10:22:33.286Z,826.88
2019-04-21T10:23:33.860Z,877.50
2019-04-21T10:24:34.016Z,860.63
2019-04-21T10:25:34.547Z,826.88
2019-04-21T10:26:33.441Z,832.50
2019-04-21T10:27:34.757Z,849.38
2019-04-21T10:28:35.046Z,832.50
2019-04-21T10:29:35.818Z,838.13
2019-04-21T10:30:34.737Z,888.75
2019-04-21T10:31:34.633Z,900.00
2019-04-21T10:32:34.459Z,894.38
2019-04-21T10:33:34.502Z,866.25
2019-04-21T10:34:34.871Z,860.63
2019-04-21T10:35:35.143Z,871.88
2019-04-21T10:36:35.036Z,883.13
2019-04-21T10:37:45.477Z,990.00
2019-04-21T10:38:41.024Z,1035.00
2019-04-21T10:39:34.026Z,990.00
2019-04-21T10:40:36.884Z,1012.50
2019-04-21T10:41:35.135Z,1085.63
2019-04-21T10:42:35.354Z,1102.50
2019-04-21T10:43:35.574Z,1130.63
2019-04-21T10:44:34.716Z,1130.63
2019-04-21T10:45:34.926Z,1085.63
2019-04-21T10:46:35.004Z,1158.75
2019-04-21T10:47:34.630Z,1231.88
2019-04-21T10:48:36.001Z,1293.75
2019-04-21T10:49:34.930Z,1350.00
2019-04-21T10:50:34.860Z,1305.00
2019-04-21T10:51:35.161Z,1366.88
2019-04-21T10:52:35.921Z,1428.75
2019-04-21T10:53:34.662Z,1473.75
2019-04-21T10:54:49.212Z,1546.88
2019-04-21T10:55:53.539Z,1591.88
2019-04-21T10:56:38.811Z,1676.25
2019-04-21T10:57:34.968Z,1698.75
2019-04-21T10:58:36.166Z,1732.50
2019-04-21T10:59:35.330Z,1794.38
2019-04-21T11:00:36.348Z,1811.25
2019-04-21T11:01:35.023Z,1845.00
2019-04-21T11:02:35.068Z,1839.38
2019-04-21T11:03:35.340Z,1822.50
2019-04-21T11:04:38.309Z,1794.38
2019-04-21T11:05:36.702Z,1878.75
2019-04-21T11:06:36.756Z,1974.38
2019-04-21T11:07:52.219Z,1929.38
2019-04-21T11:08:40.966Z,1923.75
2019-04-21T11:09:36.128Z,1884.38
2019-04-21T11:10:36.000Z,1822.50
2019-04-21T11:11:35.477Z,1738.13
2019-04-21T11:12:37.674Z,1625.63
2019-04-21T11:13:36.779Z,1710.00
2019-04-21T11:14:35.699Z,1839.38
2019-04-21T11:15:36.973Z,1940.63
2019-04-21T11:16:35.703Z,1901.25
2019-04-21T11:17:36.470Z,1890.00
2019-04-21T11:18:35.999Z,1845.00
2019-04-21T11:19:36.904Z,1845.00
2019-04-21T11:20:37.152Z,1788.75
2019-04-21T11:21:36.690Z,1850.63
2019-04-21T11:22:38.175Z,1890.00
2019-04-21T11:23:37.380Z,1901.25
2019-04-21T11:24:36.765Z,1895.63
2019-04-21T11:25:36.112Z,1878.75
2019-04-21T11:26:36.154Z,1873.13
2019-04-21T11:27:37.319Z,1749.38
2019-04-21T11:28:36.821Z,1760.63
2019-04-21T11:29:37.147Z,1828.13
2019-04-21T11:30:36.337Z,1946.25
2019-04-21T11:31:36.901Z,1850.63
2019-04-21T11:32:37.097Z,1884.38
2019-04-21T11:33:37.602Z,1873.13
2019-04-21T11:34:36.805Z,1878.75
2019-04-21T11:35:37.163Z,1890.00
2019-04-21T11:36:37.480Z,1918.13
2019-04-21T11:37:37.787Z,1923.75
2019-04-21T11:38:54.244Z,1873.13
2019-04-21T11:39:46.067Z,1816.88
2019-04-21T11:40:38.022Z,1940.63
2019-04-21T11:41:36.840Z,1929.38
2019-04-21T11:42:37.778Z,1878.75
2019-04-21T11:43:37.097Z,1867.50
2019-04-21T11:44:37.336Z,1850.63
2019-04-21T11:45:37.027Z,1850.63
2019-04-21T11:46:38.282Z,1951.88
2019-04-21T11:47:38.435Z,1974.38
2019-04-21T11:48:37.161Z,2013.75
2019-04-21T11:49:37.235Z,1743.75
2019-04-21T11:50:37.254Z,1530.00
2019-04-21T11:51:37.469Z,1569.38
2019-04-21T11:52:37.351Z,1558.13
2019-04-21T11:53:37.391Z,1580.63
2019-04-21T11:54:37.438Z,1524.38
2019-04-21T11:55:41.113Z,1366.88
2019-04-21T11:56:38.826Z,1305.00
2019-04-21T11:57:41.627Z,1293.75
2019-04-21T11:58:37.625Z,1305.00
2019-04-21T11:59:37.670Z,1366.88
2019-04-21T12:00:37.797Z,1456.88
2019-04-21T12:01:37.760Z,1524.38
2019-04-21T12:02:37.807Z,1631.25
2019-04-21T12:03:37.854Z,1698.75
2019-04-21T12:04:39.181Z,1693.13
2019-04-21T12:05:39.419Z,1608.75
2019-04-21T12:06:43.669Z,1625.63
2019-04-21T12:07:38.042Z,1642.50
2019-04-21T12:08:43.031Z,1575.00
2019-04-21T12:09:39.499Z,1535.63
2019-04-21T12:10:38.482Z,1468.13
2019-04-21T12:11:38.984Z,1434.38
2019-04-21T12:12:39.227Z,1389.38
2019-04-21T12:13:38.319Z,1366.88
2019-04-21T12:14:39.621Z,1411.88
2019-04-21T12:15:38.947Z,1569.38
2019-04-21T12:16:39.158Z,1861.88
2019-04-21T12:17:39.456Z,2019.38
2019-04-21T12:18:38.841Z,1743.75
2019-04-21T12:19:38.786Z,1451.25
2019-04-21T12:20:39.687Z,1395.00
2019-04-21T12:21:49.144Z,1350.00
2019-04-21T12:22:39.102Z,1265.63
2019-04-21T12:23:38.779Z,1226.25
2019-04-21T12:24:39.677Z,1192.50
2019-04-21T12:25:39.036Z,1175.63
2019-04-21T12:26:40.156Z,1141.88
2019-04-21T12:27:40.078Z,1119.38
2019-04-21T12:28:39.806Z,1153.13
2019-04-21T12:29:39.909Z,1158.75
2019-04-21T12:30:39.868Z,1175.63
2019-04-21T12:31:39.311Z,1215.00
2019-04-21T12:32:40.167Z,1237.50
2019-04-21T12:33:40.265Z,1293.75
2019-04-21T12:34:39.728Z,1350.00
2019-04-21T12:35:39.749Z,1378.13
2019-04-21T12:36:40.005Z,1473.75
2019-04-21T12:37:40.680Z,1597.50
2019-04-21T12:38:46.925Z,1614.38
2019-04-21T12:39:40.656Z,1603.13
2019-04-21T12:40:39.569Z,1794.38
2019-04-21T12:41:40.515Z,1805.63
2019-04-21T12:42:41.719Z,1653.75
2019-04-21T12:43:39.707Z,1591.88
2019-04-21T12:44:39.756Z,1473.75
2019-04-21T12:45:40.030Z,1434.38
2019-04-21T12:46:40.180Z,1406.25
2019-04-21T12:47:39.893Z,1411.88
2019-04-21T12:48:40.063Z,1400.63
2019-04-21T12:49:41.333Z,1327.50
2019-04-21T12:50:41.572Z,1305.00
2019-04-21T12:51:40.086Z,1338.75
2019-04-21T12:52:40.173Z,1333.13
2019-04-21T12:53:41.454Z,1361.25
2019-04-21T12:54:41.694Z,1383.75
2019-04-21T12:55:44.166Z,1383.75
2019-04-21T12:56:41.234Z,990.00
2019-04-21T12:57:41.527Z,1344.38
2019-04-21T12:58:41.575Z,1400.63
2019-04-21T12:59:40.450Z,815.63
2019-04-21T13:00:40.909Z,1276.88
2019-04-21T13:01:41.167Z,1833.75
2019-04-21T13:02:40.587Z,1035.00
2019-04-21T13:03:41.755Z,1192.50
2019-04-21T13:04:42.052Z,2019.38
2019-04-21T13:05:40.724Z,1974.38
2019-04-21T13:06:41.535Z,1918.13
2019-04-21T13:07:41.483Z,1794.38
2019-04-21T13:08:49.816Z,1873.13
2019-04-21T13:09:42.052Z,1800.00
2019-04-21T13:10:42.186Z,1732.50
2019-04-21T13:11:41.419Z,1653.75
2019-04-21T13:12:41.757Z,1603.13
2019-04-21T13:13:41.997Z,1316.25
2019-04-21T13:14:42.112Z,1108.13
2019-04-21T13:15:41.186Z,916.88
2019-04-21T13:16:41.394Z,883.13
2019-04-21T13:17:44.037Z,928.13
2019-04-21T13:18:41.702Z,922.50
2019-04-21T13:19:41.391Z,894.38
2019-04-21T13:20:42.254Z,843.75
2019-04-21T13:21:42.377Z,871.88
2019-04-21T13:22:41.964Z,821.25
2019-04-21T13:23:42.921Z,860.63
2019-04-21T13:24:42.122Z,838.13
2019-04-21T13:25:41.771Z,843.75
2019-04-21T13:26:48.291Z,866.25
2019-04-21T13:27:43.053Z,900.00
2019-04-21T13:28:42.589Z,928.13
2019-04-21T13:29:42.008Z,1035.00
2019-04-21T13:30:42.313Z,1006.88
2019-04-21T13:31:42.585Z,928.13
2019-04-21T13:32:43.038Z,871.88
2019-04-21T13:33:42.140Z,843.75
2019-04-21T13:34:42.199Z,832.50
2019-04-21T13:35:42.045Z,866.25
2019-04-21T13:36:43.458Z,849.38
2019-04-21T13:37:43.356Z,849.38
2019-04-21T13:38:55.834Z,849.38
2019-04-21T13:40:09.972Z,945.00
2019-04-21T13:40:57.008Z,905.63
2019-04-21T13:41:54.406Z,1181.25
2019-04-21T13:42:47.605Z,984.38